Time;durP1;ratioP1;P1;durP2;ratioP2;P2;SDS_P1;SDS_P2;PMS_P1;PMS_P2;Temp;Humidity;BMP_temperature;BMP_pressure;BME280_temperature;BME280_humidity;BME280_pressure;Samples;Min_cycle;Max_cycle;Signal;HPM_P1;HPM_P2
2021/05/09 00:00:23;;;;;;;2.75;1.32;;;;;;;4.24;70.98;98490.58;1823885;77;23000;-65
2021/05/09 00:03:01;;;;;;;2.10;1.90;;;;;;;4.18;70.93;98489.19;1819750;79;23018;-65
2021/05/09 00:05:49;;;;;;;3.50;1.97;;;;;;;4.13;71.89;98485.22;1832641;76;27911;-64
2021/05/09 00:08:23;;;;;;;2.67;1.40;;;;;;;4.15;71.55;98490.66;1719278;75;21860;-63
2021/05/09 00:11:00;;;;;;;3.05;1.70;;;;;;;4.07;72.02;98486.42;1780318;79;23098;-66
2021/05/09 00:13:40;;;;;;;7.90;2.37;;;;;;;4.01;73.12;98483.39;1780678;79;23047;-67
2021/05/09 00:16:18;;;;;;;4.47;2.42;;;;;;;3.93;72.99;98488.14;1780475;79;23078;-65
2021/05/09 00:18:56;;;;;;;3.80;2.37;;;;;;;3.84;73.96;98489.50;1819754;79;22927;-64
2021/05/09 00:21:31;;;;;;;5.10;1.95;;;;;;;3.79;73.24;98488.47;1780732;79;23031;-69
2021/05/09 00:24:11;;;;;;;2.30;1.80;;;;;;;3.76;73.21;98495.53;1779547;79;23064;-64
2021/05/09 00:26:58;;;;;;;3.60;2.47;;;;;;;3.72;73.98;98498.73;1804003;79;28160;-64
2021/05/09 00:29:36;;;;;;;3.08;2.10;;;;;;;3.79;73.07;98495.34;1780052;79;23056;-64
2021/05/09 00:32:15;;;;;;;3.55;2.00;;;;;;;3.70;73.14;98501.00;1850403;77;22782;-62
2021/05/09 00:34:50;;;;;;;1.17;1.07;;;;;;;3.61;74.88;98501.08;1823777;77;23035;-64
2021/05/09 00:37:29;;;;;;;2.90;1.75;;;;;;;3.56;74.10;98503.08;1780132;79;22546;-66
2021/05/09 00:40:08;;;;;;;2.65;1.75;;;;;;;3.55;74.15;98499.30;1779998;79;23433;-65
2021/05/09 00:42:57;;;;;;;3.12;1.37;;;;;;;3.52;73.50;98503.33;1780555;79;23060;-63
2021/05/09 00:45:35;;;;;;;1.82;1.00;;;;;;;3.53;73.32;98501.14;1819932;79;22930;-64
2021/05/09 00:48:15;;;;;;;3.08;0.82;;;;;;;3.52;73.91;98499.47;1780199;79;23119;-62
2021/05/09 00:50:53;;;;;;;3.10;1.67;;;;;;;3.49;73.09;98499.20;1823963;77;23004;-63
2021/05/09 00:53:34;;;;;;;1.50;1.22;;;;;;;3.51;73.81;98501.66;1780094;79;22793;-66
2021/05/09 00:56:13;;;;;;;2.05;1.27;;;;;;;3.49;72.39;98504.79;1819832;79;22934;-62
2021/05/09 00:58:53;;;;;;;1.98;1.25;;;;;;;3.49;71.38;98504.34;1823795;77;23043;-64
2021/05/09 01:01:37;;;;;;;1.42;1.05;;;;;;;3.47;73.02;98506.59;1823942;77;23433;-67
2021/05/09 01:04:17;;;;;;;1.52;0.88;;;;;;;3.44;72.72;98508.06;1780041;79;23019;-66
2021/05/09 01:07:08;;;;;;;3.65;1.70;;;;;;;3.42;73.50;98503.48;1823949;77;23077;-64
2021/05/09 01:09:47;;;;;;;1.85;1.22;;;;;;;3.38;74.15;98505.39;1823888;77;23473;-66
2021/05/09 01:12:39;;;;;;;2.90;1.55;;;;;;;3.37;73.67;98509.31;1819640;79;23384;-65
2021/05/09 01:15:22;;;;;;;2.35;1.52;;;;;;;3.38;72.49;98504.11;1819695;79;23383;-66
2021/05/09 01:18:02;;;;;;;1.80;1.45;;;;;;;3.40;72.20;98510.42;1823737;77;23071;-63
2021/05/09 01:20:40;;;;;;;2.98;1.30;;;;;;;3.39;72.72;98507.48;1780166;79;23467;-66
2021/05/09 01:23:18;;;;;;;1.52;1.07;;;;;;;3.36;74.36;98513.62;1779810;79;22747;-62
2021/05/09 01:25:57;;;;;;;1.77;1.40;;;;;;;3.37;73.05;98508.03;1823875;77;23459;-64
2021/05/09 01:28:33;;;;;;;2.47;1.20;;;;;;;3.38;72.78;98507.96;1780741;79;23060;-64
2021/05/09 01:31:31;;;;;;;1.77;1.30;;;;;;;3.39;73.54;98506.19;1819628;79;22658;-64
2021/05/09 01:34:09;;;;;;;3.98;1.90;;;;;;;3.39;72.26;98512.16;1803986;78;28174;-64
2021/05/09 01:36:47;;;;;;;1.60;1.30;;;;;;;3.51;71.07;98506.80;1779866;79;23062;-64
2021/05/09 01:39:25;;;;;;;2.15;1.80;;;;;;;3.45;71.95;98509.27;1850357;76;23119;-66
2021/05/09 01:42:17;;;;;;;1.20;1.10;;;;;;;3.41;73.36;98513.37;1779130;79;23460;-64
2021/05/09 01:44:57;;;;;;;1.27;0.98;;;;;;;3.35;73.62;98506.37;1780095;79;23035;-64
2021/05/09 01:47:38;;;;;;;3.33;1.55;;;;;;;3.30;72.78;98514.80;1819781;79;22461;-65
2021/05/09 01:50:17;;;;;;;2.12;1.50;;;;;;;3.26;72.57;98512.48;1823829;77;23018;-64
2021/05/09 01:52:55;;;;;;;1.47;1.37;;;;;;;3.20;73.07;98511.52;1780303;79;23044;-64
2021/05/09 01:55:33;;;;;;;1.87;1.50;;;;;;;3.15;74.17;98519.94;1779979;79;23444;-64
2021/05/09 01:58:18;;;;;;;1.30;1.20;;;;;;;3.09;74.56;98522.37;1823882;77;22534;-66
2021/05/09 02:01:10;;;;;;;1.20;1.10;;;;;;;3.12;73.41;98526.05;1850135;77;23013;-64
2021/05/09 02:03:57;;;;;;;3.02;1.85;;;;;;;3.13;73.96;98531.56;1763411;79;28255;-64
2021/05/09 02:06:36;;;;;;;1.60;1.05;;;;;;;3.26;73.46;98527.88;1823849;77;23405;-64
2021/05/09 02:09:14;;;;;;;4.10;1.98;;;;;;;3.17;74.70;98529.20;1823769;77;23020;-63
2021/05/09 02:11:55;;;;;;;2.20;1.85;;;;;;;3.12;74.67;98532.46;1819654;79;22679;-66
2021/05/09 02:24:59;;;;;;;6.55;2.47;;;;;;;2.99;74.75;98535.78;1773464;80;22929;-65
2021/05/09 02:27:37;;;;;;;2.22;2.02;;;;;;;2.98;74.90;98532.38;1819774;79;22935;-68
2021/05/09 02:40:48;;;;;;;3.72;2.70;;;;;;;2.85;74.56;98543.74;1799755;79;23084;-64
2021/05/09 02:43:28;;;;;;;3.02;2.67;;;;;;;2.88;74.62;98544.51;1819649;79;22594;-64
2021/05/09 02:46:06;;;;;;;3.10;2.80;;;;;;;2.88;74.78;98549.16;1780137;79;22588;-65
2021/05/09 02:48:53;;;;;;;3.25;2.05;;;;;;;2.83;75.61;98550.70;1807272;79;23483;-64
2021/05/09 02:51:30;;;;;;;3.70;2.75;;;;;;;2.86;75.01;98540.73;1780251;79;23462;-64
2021/05/09 02:54:08;;;;;;;5.80;2.85;;;;;;;2.86;75.07;98548.42;1819659;79;22726;-64
2021/05/09 02:56:46;;;;;;;8.70;4.42;;;;;;;2.86;74.50;98554.39;1823748;77;23020;-64
2021/05/09 02:59:28;;;;;;;3.65;3.17;;;;;;;2.85;74.29;98557.02;1819636;79;22818;-64
2021/05/09 03:02:05;;;;;;;7.37;4.45;;;;;;;2.84;74.24;98559.23;1801543;79;28426;-64
2021/05/09 03:04:43;;;;;;;6.37;3.27;;;;;;;2.91;73.90;98565.70;1823902;77;22882;-64
2021/05/09 03:07:28;;;;;;;6.00;3.02;;;;;;;2.81;74.55;98570.91;1819751;79;22363;-64
2021/05/09 03:10:27;;;;;;;6.03;3.37;;;;;;;2.74;74.90;98575.98;1803930;79;27864;-65
2021/05/09 03:13:04;;;;;;;4.62;2.17;;;;;;;2.83;74.69;98571.67;1819685;79;22954;-66
2021/05/09 03:15:42;;;;;;;2.20;1.50;;;;;;;2.75;74.34;98582.78;1780259;79;22698;-64
2021/05/09 03:18:21;;;;;;;2.45;1.32;;;;;;;2.69;75.16;98582.63;1823815;77;22654;-66
2021/05/09 03:20:59;;;;;;;1.98;1.27;;;;;;;2.71;74.94;98585.13;1823853;77;23515;-64
2021/05/09 03:23:37;;;;;;;1.80;1.22;;;;;;;2.72;74.57;98586.80;1780045;79;23490;-64
2021/05/09 03:26:16;;;;;;;2.05;1.20;;;;;;;2.73;74.82;98596.95;1850298;77;22654;-63
2021/05/09 03:28:54;;;;;;;2.95;2.25;;;;;;;2.75;74.57;98602.02;1780007;79;23033;-65
2021/05/09 03:31:33;;;;;;;2.25;1.82;;;;;;;2.77;74.32;98607.44;1779887;79;23027;-63
2021/05/09 03:34:11;;;;;;;3.77;2.58;;;;;;;2.74;74.82;98611.45;1819677;79;22931;-66
2021/05/09 03:36:49;;;;;;;2.17;1.40;;;;;;;2.73;74.85;98613.63;1780221;79;23458;-67
2021/05/09 03:39:26;;;;;;;2.87;1.40;;;;;;;2.74;74.93;98614.01;1823902;77;23012;-66
2021/05/09 03:42:04;;;;;;;4.12;1.35;;;;;;;2.76;74.75;98616.51;1780077;79;23500;-68
2021/05/09 03:44:51;;;;;;;2.30;1.17;;;;;;;2.77;75.72;98623.27;1780370;79;23034;-66
2021/05/09 03:47:29;;;;;;;1.65;1.20;;;;;;;2.81;74.42;98617.91;1780119;79;22450;-64
2021/05/09 03:50:12;;;;;;;2.30;1.50;;;;;;;2.86;74.31;98618.97;1780026;79;23044;-65
2021/05/09 03:52:50;;;;;;;4.22;2.95;;;;;;;2.88;74.52;98614.57;1780086;79;23053;-63
2021/05/09 03:55:25;;;;;;;5.40;2.80;;;;;;;2.93;74.78;98615.62;1819709;79;22953;-64
2021/05/09 03:58:03;;;;;;;4.40;3.08;;;;;;;2.95;74.39;98617.22;1780480;79;23490;-64
2021/05/09 04:00:46;;;;;;;7.75;3.80;;;;;;;2.99;73.82;98617.44;1820366;79;22962;-65
2021/05/09 04:03:26;;;;;;;16.35;4.58;;;;;;;3.05;73.31;98617.10;1780909;79;23041;-63
2021/05/09 04:06:04;;;;;;;5.28;4.00;;;;;;;3.13;72.98;98612.84;1850115;76;23491;-65
2021/05/09 04:08:43;;;;;;;7.17;3.60;;;;;;;3.18;72.91;98616.84;1823836;77;23024;-64
2021/05/09 04:11:21;;;;;;;5.28;3.45;;;;;;;3.18;74.31;98621.14;1780290;79;23472;-64
2021/05/09 04:13:59;;;;;;;5.53;3.20;;;;;;;3.20;73.32;98626.55;1823704;77;23027;-65
2021/05/09 04:16:37;;;;;;;10.15;3.22;;;;;;;3.26;73.44;98620.28;1779975;79;23266;-63
2021/05/09 04:19:14;;;;;;;4.35;2.80;;;;;;;3.31;72.52;98625.53;1823792;77;23450;-65
2021/05/09 04:21:54;;;;;;;5.10;3.37;;;;;;;3.39;72.53;98625.57;1779250;79;23178;-68
2021/05/09 04:24:32;;;;;;;5.30;3.42;;;;;;;3.45;71.35;98623.97;1819636;79;22698;-64
2021/05/09 04:27:07;;;;;;;4.80;2.75;;;;;;;3.53;72.14;98624.39;1819663;79;22996;-65
2021/05/09 04:29:52;;;;;;;5.35;2.45;;;;;;;3.56;72.66;98630.64;1849698;76;22743;-64
2021/05/09 04:32:40;;;;;;;6.93;4.13;;;;;;;3.61;71.81;98629.95;1832737;76;27935;-64
2021/05/09 04:46:07;;;;;;;5.25;2.83;;;;;;;4.02;70.69;98632.79;1802085;77;28614;-64
2021/05/09 04:48:44;;;;;;;2.87;2.30;;;;;;;4.21;70.03;98631.67;1819662;79;23370;-66
2021/05/09 04:51:23;;;;;;;2.42;1.87;;;;;;;4.30;69.96;98633.73;1779898;79;23048;-66
2021/05/09 04:54:01;;;;;;;3.45;1.72;;;;;;;4.40;69.09;98634.50;1780091;79;23459;-65
2021/05/09 05:11:07;;;;;;;1.98;1.02;;;;;;;5.08;67.15;98642.02;1806029;78;22879;-65
2021/05/09 05:13:49;;;;;;;3.02;0.78;;;;;;;5.17;66.64;98641.48;1823855;77;23104;-66
2021/05/09 05:16:29;;;;;;;3.95;1.47;;;;;;;5.29;66.60;98642.48;1823832;77;22812;-67
2021/05/09 05:19:07;;;;;;;1.75;0.95;;;;;;;5.41;66.34;98645.59;1823986;77;22952;-65
2021/05/09 05:21:45;;;;;;;3.20;1.45;;;;;;;5.55;66.01;98646.40;1819735;79;22947;-65
2021/05/09 05:24:23;;;;;;;2.37;1.32;;;;;;;5.69;64.92;98641.66;1819929;79;22730;-66
2021/05/09 05:27:00;;;;;;;2.95;1.62;;;;;;;5.85;65.36;98646.68;1850725;77;23102;-66
2021/05/09 05:29:38;;;;;;;3.42;1.60;;;;;;;5.99;65.01;98644.11;1780404;79;23027;-67
2021/05/09 05:32:17;;;;;;;1.22;1.05;;;;;;;6.12;63.51;98643.67;1823970;77;23008;-67
2021/05/09 05:34:56;;;;;;;0.90;0.88;;;;;;;6.28;63.92;98653.37;1850263;76;23098;-67
2021/05/09 05:37:43;;;;;;;1.85;1.62;;;;;;;6.44;62.74;98651.91;1804067;79;27825;-67
2021/05/09 05:40:26;;;;;;;2.05;1.15;;;;;;;6.58;59.74;98643.63;1780050;79;23675;-67
2021/05/09 05:43:05;;;;;;;1.30;0.80;;;;;;;6.75;59.61;98651.55;1850277;77;23053;-66
2021/05/09 05:45:43;;;;;;;1.52;1.02;;;;;;;6.89;59.07;98651.90;1780019;79;23066;-67
2021/05/09 05:48:25;;;;;;;3.95;1.50;;;;;;;7.05;59.32;98649.94;1779400;79;23066;-66
2021/05/09 05:51:03;;;;;;;3.10;2.05;;;;;;;7.24;60.33;98649.54;1823762;77;23038;-66
2021/05/09 05:53:41;;;;;;;3.58;2.35;;;;;;;7.40;60.71;98651.41;1823929;77;23057;-66
2021/05/09 05:56:18;;;;;;;3.50;2.42;;;;;;;7.57;60.17;98652.36;1817164;78;22353;-66
2021/05/09 05:58:56;;;;;;;3.12;2.62;;;;;;;7.73;60.17;98648.23;1780077;79;23071;-67
2021/05/09 06:01:35;;;;;;;6.28;3.33;;;;;;;7.88;60.29;98648.44;1819728;79;22935;-65
2021/05/09 06:04:13;;;;;;;7.87;2.85;;;;;;;8.01;60.01;98651.34;1823875;77;22617;-66
2021/05/09 06:06:50;;;;;;;5.50;2.22;;;;;;;8.15;59.22;98651.64;1817152;79;22335;-66
2021/05/09 06:09:29;;;;;;;8.65;2.77;;;;;;;8.29;59.05;98651.48;1850213;77;22800;-67
2021/05/09 06:12:28;;;;;;;4.85;2.85;;;;;;;8.40;58.71;98649.42;1807309;79;23458;-64
2021/05/09 06:15:29;;;;;;;4.33;2.75;;;;;;;8.49;58.14;98650.85;1780106;79;23060;-64
2021/05/09 06:18:06;;;;;;;5.92;3.52;;;;;;;8.64;57.75;98650.68;1803952;79;27840;-69
2021/05/09 06:20:44;;;;;;;4.87;2.05;;;;;;;8.75;56.54;98652.00;1850422;76;23420;-67
2021/05/09 06:23:27;;;;;;;3.55;1.80;;;;;;;8.81;55.44;98658.83;1823871;77;22810;-66
2021/05/09 06:26:04;;;;;;;3.45;1.95;;;;;;;8.84;56.04;98655.17;1824062;77;22650;-66
2021/05/09 06:28:41;;;;;;;3.10;2.27;;;;;;;8.95;56.00;98661.20;1780112;79;22806;-66
2021/05/09 06:31:39;;;;;;;3.22;2.33;;;;;;;9.06;55.62;98660.41;1780063;79;22711;-64
2021/05/09 06:34:15;;;;;;;2.92;2.00;;;;;;;9.11;55.44;98657.45;1849738;76;23020;-64
2021/05/09 06:36:53;;;;;;;3.70;2.05;;;;;;;9.21;54.03;98660.53;1780238;79;23042;-64
2021/05/09 06:39:30;;;;;;;4.17;1.70;;;;;;;9.38;53.35;98663.11;1819800;79;22719;-66
2021/05/09 06:42:08;;;;;;;2.08;1.75;;;;;;;9.50;51.85;98663.47;1780204;79;22797;-67
2021/05/09 06:44:52;;;;;;;3.08;1.52;;;;;;;9.52;51.38;98659.00;1819792;79;22939;-66
2021/05/09 06:47:26;;;;;;;2.42;1.42;;;;;;;9.60;50.34;98657.94;1819771;79;22948;-67
2021/05/09 06:50:24;;;;;;;1.98;1.00;;;;;;;9.78;49.87;98657.78;1780068;79;23038;-66
2021/05/09 06:53:04;;;;;;;1.57;1.27;;;;;;;10.00;50.12;98657.72;1817215;77;22190;-66
2021/05/09 06:55:39;;;;;;;2.57;1.80;;;;;;;10.20;49.88;98659.22;1801573;78;28501;-67
2021/05/09 06:58:20;;;;;;;1.95;1.37;;;;;;;10.37;50.02;98646.55;1848440;76;22806;-67
2021/05/09 07:00:59;;;;;;;2.52;1.47;;;;;;;10.43;50.63;98651.23;1779815;79;23383;-66
2021/05/09 07:03:37;;;;;;;1.52;0.95;;;;;;;10.60;50.43;98652.92;1823722;77;23456;-65
2021/05/09 07:06:19;;;;;;;3.22;1.40;;;;;;;10.78;49.57;98656.12;1778902;79;23041;-67
2021/05/09 07:08:57;;;;;;;2.22;1.67;;;;;;;10.95;49.40;98652.95;1823861;77;23111;-66
2021/05/09 07:11:37;;;;;;;5.00;1.82;;;;;;;11.13;50.11;98649.75;1823829;77;23021;-67
2021/05/09 07:14:15;;;;;;;3.67;2.10;;;;;;;11.17;49.80;98646.77;1779860;79;23058;-66
2021/05/09 07:16:59;;;;;;;2.77;1.75;;;;;;;11.27;51.55;98648.95;1851439;76;22864;-68
2021/05/09 07:19:46;;;;;;;3.42;2.42;;;;;;;11.35;50.96;98653.03;1802171;78;28101;-67
2021/05/09 07:22:39;;;;;;;4.97;2.55;;;;;;;11.64;51.23;98643.17;1834377;77;28037;-66
2021/05/09 07:25:12;;;;;;;2.95;1.50;;;;;;;11.85;51.40;98643.95;1817450;79;21230;-64
2021/05/09 07:27:50;;;;;;;5.47;1.87;;;;;;;12.06;51.62;98647.27;1819700;79;23407;-63
2021/05/09 07:30:29;;;;;;;2.90;1.65;;;;;;;12.27;51.55;98645.37;1780047;79;23476;-64
2021/05/09 07:33:08;;;;;;;2.10;1.55;;;;;;;12.42;51.02;98637.97;1819665;79;23006;-64
2021/05/09 07:35:43;;;;;;;5.70;2.65;;;;;;;12.52;51.23;98637.50;1832675;76;38835;-63
2021/05/09 07:38:21;;;;;;;4.12;1.95;;;;;;;12.66;50.86;98637.54;1780205;79;23371;-64
2021/05/09 07:40:59;;;;;;;5.17;1.85;;;;;;;12.87;50.13;98639.98;1850512;76;23414;-66
2021/05/09 07:43:37;;;;;;;2.85;1.85;;;;;;;13.08;48.80;98633.60;1819623;79;22817;-64
2021/05/09 07:46:15;;;;;;;3.40;1.90;;;;;;;13.25;48.90;98634.20;1850304;76;23025;-63
2021/05/09 07:49:03;;;;;;;4.55;1.80;;;;;;;13.43;48.52;98633.43;1801543;79;28120;-64
2021/05/09 07:51:48;;;;;;;5.12;1.65;;;;;;;13.69;47.10;98639.16;1778692;79;23056;-67
2021/05/09 08:04:48;;;;;;;1.27;0.70;;;;;;;13.92;41.52;98636.14;1835672;77;22723;-64
2021/05/09 08:07:57;;;;;;;1.95;0.82;;;;;;;13.98;37.27;98637.66;1848669;76;22343;-65
2021/05/09 08:10:40;;;;;;;1.15;0.60;;;;;;;14.18;37.22;98630.03;1779635;79;22663;-66
2021/05/09 08:13:18;;;;;;;1.10;0.80;;;;;;;14.38;34.94;98625.52;1780127;79;22780;-65
2021/05/09 08:15:59;;;;;;;1.15;0.62;;;;;;;14.51;34.00;98625.92;1779167;79;22772;-65
2021/05/09 08:18:37;;;;;;;1.05;0.93;;;;;;;14.51;34.17;98628.55;1780053;79;22653;-65
2021/05/09 08:21:16;;;;;;;2.05;1.30;;;;;;;14.58;34.98;98623.55;1823793;77;22374;-64
2021/05/09 08:23:54;;;;;;;0.80;0.70;;;;;;;14.67;33.97;98631.28;1819694;79;23411;-66
2021/05/09 08:26:35;;;;;;;1.20;1.00;;;;;;;14.64;33.28;98619.01;1823822;77;22872;-65
2021/05/09 08:29:13;;;;;;;2.70;1.30;;;;;;;14.69;34.89;98628.05;1823848;77;23516;-65
2021/05/09 08:31:51;;;;;;;0.60;0.60;;;;;;;14.90;34.91;98625.06;1850453;76;23098;-65
2021/05/09 08:34:29;;;;;;;0.98;0.78;;;;;;;14.95;35.30;98624.61;1779970;79;23178;-64
2021/05/09 08:37:08;;;;;;;0.95;0.70;;;;;;;14.80;33.50;98620.44;1819854;79;22806;-64
2021/05/09 08:39:46;;;;;;;1.45;0.88;;;;;;;14.88;33.26;98627.03;1819823;79;23079;-64
2021/05/09 08:42:23;;;;;;;1.37;0.80;;;;;;;14.87;34.41;98615.41;1850174;77;23442;-64
2021/05/09 08:45:08;;;;;;;0.65;0.60;;;;;;;15.18;33.87;98612.64;1823703;77;23015;-64
2021/05/09 08:47:47;;;;;;;0.95;0.85;;;;;;;15.24;33.02;98613.83;1819667;79;23409;-65
2021/05/09 08:50:26;;;;;;;4.22;1.12;;;;;;;15.38;33.51;98609.31;1819657;79;22942;-64
2021/05/09 08:53:08;;;;;;;0.88;0.60;;;;;;;15.38;32.73;98611.44;1823768;77;22623;-64
2021/05/09 08:55:47;;;;;;;;;;;;;;;15.47;32.00;98620.98;1826521;77;23488;-63
2021/05/09 08:58:25;;;;;;;0.68;0.62;;;;;;;15.69;32.02;98618.30;1832812;76;28450;-64
2021/05/09 09:01:03;;;;;;;;;;;;;;;15.84;31.89;98624.55;1782622;79;23048;-64
2021/05/09 09:03:40;;;;;;;;;;;;;;;15.91;32.78;98611.66;1826537;77;23113;-63
2021/05/09 09:06:41;;;;;;;0.57;0.40;;;;;;;15.76;31.80;98617.19;1823747;77;22661;-63
2021/05/09 09:09:26;;;;;;;1.55;0.95;;;;;;;15.88;31.75;98610.64;1823796;77;23055;-65
2021/05/09 09:12:02;;;;;;;0.85;0.70;;;;;;;15.56;31.46;98612.19;1780726;79;22704;-65
2021/05/09 09:14:57;;;;;;;;;;;;;;;15.86;31.77;98616.06;1822233;79;23009;-65
2021/05/09 09:17:35;;;;;;;1.85;1.05;;;;;;;15.51;31.42;98613.66;1808086;77;28535;-65
2021/05/09 09:25:39;;;;;;;1.02;0.75;;;;;;;16.19;30.84;98611.69;1850265;76;22679;-65
2021/05/09 09:28:18;;;;;;;;;;;;;;;16.44;30.75;98613.35;1826447;77;23016;-64
2021/05/09 09:30:55;;;;;;;1.12;0.50;;;;;;;16.78;30.62;98611.88;1848631;76;22356;-66
2021/05/09 09:33:32;;;;;;;;;;;;;;;16.93;29.35;98606.77;1826565;77;22767;-65
2021/05/09 09:36:15;;;;;;;0.65;0.65;;;;;;;16.85;30.64;98608.09;1780260;79;23040;-64
2021/05/09 09:38:53;;;;;;;1.00;0.60;;;;;;;17.22;29.79;98604.91;1850327;77;23005;-66
2021/05/09 09:41:30;;;;;;;;;;;;;;;17.37;28.75;98609.77;1782427;79;23085;-64
2021/05/09 09:44:12;;;;;;;1.25;0.90;;;;;;;17.49;27.87;98600.05;1848648;76;22347;-64
2021/05/09 09:46:59;;;;;;;;;;;;;;;17.54;27.97;98594.28;1782603;79;23070;-64
2021/05/09 09:49:38;;;;;;;;;;;;;;;18.05;28.03;98590.25;1782837;79;25727;-63
2021/05/09 09:52:16;;;;;;;1.65;0.72;;;;;;;18.27;27.81;98588.61;1817204;79;21245;-65
2021/05/09 09:54:54;;;;;;;;;;;;;;;18.29;27.18;98590.05;1822251;79;22965;-65
2021/05/09 09:57:32;;;;;;;;;;;;;;;18.21;27.76;98594.05;1782427;79;23027;-64
2021/05/09 10:00:23;;;;;;;;;;;;;;;18.25;26.79;98591.89;1826430;77;23064;-63
2021/05/09 10:02:59;;;;;;;;;;;;;;;18.86;26.44;98589.60;1852515;76;23106;-65
2021/05/09 10:05:37;;;;;;;2.25;1.10;;;;;;;19.28;26.75;98582.39;1780202;79;23049;-65
2021/05/09 10:08:23;;;;;;;2.52;1.10;;;;;;;19.52;25.96;98568.95;1823598;77;22817;-65
2021/05/09 10:11:06;;;;;;;3.27;0.78;;;;;;;19.20;25.88;98581.98;1823736;77;23474;-63
2021/05/09 10:13:44;;;;;;;1.05;0.95;;;;;;;19.22;25.97;98583.92;1823738;77;22603;-64
2021/05/09 10:16:24;;;;;;;0.93;0.60;;;;;;;19.62;25.73;98582.64;1779882;79;22626;-65
2021/05/09 10:19:05;;;;;;;0.78;0.68;;;;;;;19.51;25.70;98573.08;1823728;77;23004;-63
2021/05/09 10:21:43;;;;;;;0.78;0.70;;;;;;;19.64;25.17;98578.52;1779925;79;23034;-65
2021/05/09 10:24:25;;;;;;;1.25;0.80;;;;;;;19.77;25.17;98573.38;1780039;79;22759;-64
2021/05/09 10:27:11;;;;;;;1.00;0.70;;;;;;;19.36;24.97;98568.63;1819778;79;22974;-67
2021/05/09 10:29:50;;;;;;;1.20;0.93;;;;;;;19.75;24.92;98560.91;1824436;77;23044;-65
2021/05/09 10:32:39;;;;;;;2.10;1.20;;;;;;;19.49;25.18;98564.06;1850393;77;22782;-65
2021/05/09 10:35:20;;;;;;;3.22;0.70;;;;;;;19.26;25.07;98566.76;1780099;79;23043;-65
2021/05/09 10:38:00;;;;;;;1.45;0.85;;;;;;;19.90;24.81;98554.58;1780616;79;23225;-65
2021/05/09 10:40:41;;;;;;;0.95;0.70;;;;;;;20.01;24.58;98551.94;1823655;77;23062;-64
2021/05/09 10:43:27;;;;;;;1.20;0.70;;;;;;;20.02;24.56;98550.95;1850127;76;23418;-66
2021/05/09 10:46:05;;;;;;;1.77;0.70;;;;;;;20.53;24.16;98551.63;1823591;77;23425;-66
2021/05/09 10:48:43;;;;;;;1.50;0.90;;;;;;;20.76;23.51;98557.98;1779914;79;23047;-64
2021/05/09 11:13:07;;;;;;;0.65;0.60;;;;;;;22.24;22.73;98534.70;1779765;79;23114;-66
2021/05/09 11:16:18;;;;;;;0.85;0.70;;;;;;;21.75;22.60;98532.34;1803936;79;27786;-65
2021/05/09 11:19:17;;;;;;;2.65;0.95;;;;;;;22.05;22.41;98528.08;1823770;77;23072;-67
2021/05/09 11:21:57;;;;;;;0.90;0.70;;;;;;;22.95;21.58;98532.23;1779901;79;23441;-65
2021/05/09 11:24:37;;;;;;;1.37;0.78;;;;;;;23.34;20.67;98535.77;1823607;77;23042;-66
2021/05/09 11:27:26;;;;;;;0.85;0.70;;;;;;;22.61;22.00;98527.14;1823642;77;23099;-63
2021/05/09 11:30:03;;;;;;;0.70;0.70;;;;;;;22.58;21.55;98521.77;1819454;79;22364;-66
2021/05/09 11:32:46;;;;;;;0.80;0.60;;;;;;;23.28;20.70;98526.81;1779871;79;22967;-64
2021/05/09 11:35:38;;;;;;;0.75;0.70;;;;;;;23.28;21.52;98505.61;1779818;79;23136;-64
2021/05/09 11:38:27;;;;;;;1.25;0.68;;;;;;;21.89;21.51;98513.38;1819547;79;22604;-66
2021/05/09 11:41:05;;;;;;;1.30;0.78;;;;;;;22.29;21.98;98516.09;1850107;77;22546;-66
2021/05/09 11:44:27;;;;;;;0.50;0.50;;;;;;;23.31;20.79;98507.02;1850758;76;23093;-66
2021/05/09 11:47:26;;;;;;;1.80;0.60;;;;;;;23.09;20.69;98498.05;1780540;78;22646;-65
2021/05/09 11:50:07;;;;;;;1.10;0.68;;;;;;;23.75;20.45;98492.95;1832500;76;28109;-66
2021/05/09 11:52:45;;;;;;;0.78;0.55;;;;;;;24.06;20.22;98496.41;1823765;77;22975;-66
2021/05/09 11:55:27;;;;;;;1.47;0.78;;;;;;;23.52;20.48;98494.83;1778798;79;23020;-65
2021/05/09 11:58:14;;;;;;;2.95;0.60;;;;;;;22.31;21.92;98495.02;1778759;79;23044;-64
2021/05/09 12:00:54;;;;;;;0.50;0.50;;;;;;;23.01;20.74;98489.52;1819468;79;22534;-65
2021/05/09 12:03:32;;;;;;;0.60;0.60;;;;;;;22.95;21.25;98475.80;1823630;77;23429;-66
2021/05/09 12:16:47;;;;;;;1.15;0.80;;;;;;;23.21;21.14;98461.62;1853889;76;23038;-66
2021/05/09 12:19:35;;;;;;;1.07;0.72;;;;;;;23.50;20.81;98469.06;1849952;77;23046;-64
2021/05/09 12:22:13;;;;;;;0.45;0.45;;;;;;;23.29;21.39;98461.37;1823638;77;23040;-65
2021/05/09 12:24:57;;;;;;;0.50;0.50;;;;;;;24.18;21.26;98465.23;1778450;79;23067;-66
2021/05/09 12:27:40;;;;;;;0.90;0.70;;;;;;;24.12;20.15;98456.28;1779955;79;23058;-66
2021/05/09 12:30:19;;;;;;;1.32;0.70;;;;;;;24.06;19.74;98467.74;1850230;76;23489;-65
2021/05/09 12:32:57;;;;;;;0.53;0.50;;;;;;;23.69;20.00;98465.98;1850143;77;23409;-66
2021/05/09 12:35:45;;;;;;;0.40;0.40;;;;;;;24.41;19.60;98463.59;1823734;77;23437;-66
2021/05/09 12:38:33;;;;;;;0.47;0.47;;;;;;;24.33;19.80;98453.25;1779805;79;23452;-66
2021/05/09 12:52:07;;;;;;;0.65;0.60;;;;;;;24.55;19.36;98439.06;1834255;77;22914;-66
2021/05/09 12:54:47;;;;;;;1.80;0.90;;;;;;;24.48;19.21;98451.56;1804078;79;27768;-65
2021/05/09 13:12:43;;;;;;;2.30;0.80;;;;;;;24.06;19.93;98436.72;1780520;79;22798;-67
2021/05/09 13:15:22;;;;;;;0.65;0.65;;;;;;;23.88;19.97;98433.20;1823648;77;23476;-67
2021/05/09 13:17:59;;;;;;;1.00;0.68;;;;;;;24.64;19.23;98434.25;1849942;76;23048;-67
2021/05/09 13:20:37;;;;;;;1.05;0.80;;;;;;;24.27;19.43;98427.59;1823614;77;23022;-65
2021/05/09 13:23:15;;;;;;;2.85;1.05;;;;;;;24.41;19.20;98431.73;1779954;79;22685;-67
2021/05/09 13:26:02;;;;;;;3.33;0.88;;;;;;;24.36;19.35;98422.79;1848309;76;22351;-66
2021/05/09 13:28:46;;;;;;;2.90;0.80;;;;;;;24.93;18.66;98414.44;1819382;79;23123;-66
2021/05/09 14:02:19;;;;;;;1.20;0.60;;;;;;;25.11;17.84;98384.36;1780551;79;22988;-66
2021/05/09 14:04:58;;;;;;;0.65;0.50;;;;;;;25.27;18.23;98377.59;1823651;77;22571;-66
2021/05/09 14:07:37;;;;;;;1.45;0.88;;;;;;;25.60;17.78;98376.63;1850150;76;23052;-65
2021/05/09 14:10:24;;;;;;;0.53;0.50;;;;;;;24.56;18.74;98372.44;1819497;79;22946;-66
2021/05/09 14:13:04;;;;;;;0.68;0.62;;;;;;;24.74;18.67;98365.51;1779668;79;23097;-64
2021/05/09 14:15:53;;;;;;;3.17;1.45;;;;;;;24.50;18.70;98372.53;1779938;79;23475;-64
2021/05/09 14:29:37;;;;;;;2.15;0.98;;;;;;;25.03;18.11;98364.73;1780071;79;23019;-66
2021/05/09 14:32:15;;;;;;;2.10;0.95;;;;;;;25.10;18.24;98368.66;1823705;77;23452;-67
2021/05/09 14:34:53;;;;;;;0.75;0.75;;;;;;;24.79;18.57;98367.77;1779924;79;22640;-65
2021/05/09 14:37:35;;;;;;;0.50;0.50;;;;;;;24.55;19.01;98358.08;1823717;77;23313;-65
2021/05/09 14:40:17;;;;;;;1.00;0.57;;;;;;;24.95;19.33;98360.55;1819582;79;23020;-64
2021/05/09 14:42:55;;;;;;;1.25;0.80;;;;;;;24.95;18.89;98352.58;1823722;77;22516;-64
2021/05/09 14:45:33;;;;;;;1.87;1.10;;;;;;;24.69;18.86;98360.86;1850122;76;22354;-67
2021/05/09 14:48:11;;;;;;;0.80;0.80;;;;;;;24.73;18.84;98362.55;1823673;77;23015;-66
2021/05/09 14:51:01;;;;;;;1.02;0.68;;;;;;;24.78;18.68;98356.88;1819721;79;23052;-65
2021/05/09 14:53:39;;;;;;;0.72;0.70;;;;;;;24.86;18.67;98355.24;1823638;77;23470;-64
2021/05/09 14:56:17;;;;;;;1.70;1.00;;;;;;;24.48;18.85;98356.81;1823648;77;22687;-65
2021/05/09 14:58:55;;;;;;;0.78;0.70;;;;;;;24.61;18.61;98352.38;1780586;79;23036;-65
2021/05/09 15:01:37;;;;;;;1.07;0.70;;;;;;;25.03;18.70;98353.59;1778515;79;22590;-64
2021/05/09 15:04:15;;;;;;;0.75;0.60;;;;;;;24.77;18.17;98364.55;1823611;77;23019;-63
2021/05/09 15:06:53;;;;;;;0.60;0.60;;;;;;;24.81;18.10;98357.75;1823579;77;23421;-65
2021/05/09 15:09:31;;;;;;;1.10;0.80;;;;;;;25.01;17.97;98350.37;1819496;79;22934;-64
2021/05/09 15:12:09;;;;;;;0.78;0.60;;;;;;;24.92;18.51;98339.75;1823704;77;22668;-63
2021/05/09 15:14:47;;;;;;;0.98;0.57;;;;;;;24.71;18.65;98338.86;1779827;79;23431;-63
2021/05/09 15:17:30;;;;;;;1.07;0.78;;;;;;;24.91;18.61;98338.13;1823700;77;23048;-65
2021/05/09 15:20:10;;;;;;;0.55;0.55;;;;;;;24.19;19.12;98342.14;1779928;79;23441;-69
2021/05/09 15:22:48;;;;;;;1.07;0.90;;;;;;;23.69;19.64;98338.70;1823610;77;23122;-65
2021/05/09 15:25:30;;;;;;;0.47;0.47;;;;;;;23.87;19.47;98332.11;1823608;77;23022;-65
2021/05/09 15:28:08;;;;;;;1.87;0.65;;;;;;;24.36;19.57;98343.16;1823738;77;23457;-65